Terminal Aerodrome Forecast
Issued by NWS Cleveland, OH

Home | Current Version | Previous Version | Graphics & Text | Print | Product List | Glossary On
Versions: 1 2 3 4 5 6 7 8 9 10 11 12 13 14
000
FTUS41 KCLE 190545
TAFTOL
TAF
KTOL 190545Z 1906/2006 04010G18KT 4SM -RASN BKN007
     FM190700 01010G18KT 4SM -SN OVC007
      TEMPO 1907/1909 2SM -SN OVC005
     FM191000 32014G22KT P6SM VCSH OVC010
     FM191500 32015G25KT P6SM BKN025
     FM191700 33017G25KT P6SM BKN040
     FM191900 33015G22KT P6SM SCT050
     FM192300 33008KT P6SM FEW180=

USA.gov is the U.S. government's official web portal to all federal, state and local government web resources and services.